Time;durP1;ratioP1;P1;durP2;ratioP2;P2;SDS_P1;SDS_P2;PMS_P1;PMS_P2;Temp;Humidity;BMP_temperature;BMP_pressure;BME280_temperature;BME280_humidity;BME280_pressure;Samples;Min_cycle;Max_cycle;Signal;HPM_P1;HPM_P2
2024/04/05 00:00:41;;;;;;;2.03;1.93;;;;;;;;;;6187920;23;20568;-88
2024/04/05 00:03:07;;;;;;;1.97;1.80;;;;;;;;;;6187919;23;20201;-88
2024/04/05 00:05:34;;;;;;;14.13;2.57;;;;;;;;;;6188198;23;20209;-88
2024/04/05 00:08:00;;;;;;;20.20;3.20;;;;;;;;;;6213088;22;20180;-88
2024/04/05 00:10:26;;;;;;;13.67;2.37;;;;;;;;;;6212990;23;20676;-88
2024/04/05 00:12:52;;;;;;;15.73;3.30;;;;;;;;;;6213046;23;20252;-88
2024/04/05 00:15:19;;;;;;;7.57;2.37;;;;;;;;;;6268102;22;20216;-88
2024/04/05 00:17:46;;;;;;;6.30;2.00;;;;;;;;;;6274981;22;20208;-89
2024/04/05 00:20:12;;;;;;;14.70;3.33;;;;;;;;;;6275289;22;20211;-88
2024/04/05 00:22:38;;;;;;;14.47;2.30;;;;;;;;;;6275629;22;20171;-89
2024/04/05 00:25:05;;;;;;;8.83;1.03;;;;;;;;;;6275047;22;20667;-89
2024/04/05 00:27:31;;;;;;;3.70;2.43;;;;;;;;;;6275112;22;20587;-88
2024/04/05 00:29:57;;;;;;;4.00;1.60;;;;;;;;;;6274949;22;20226;-88
2024/04/05 00:32:23;;;;;;;4.93;1.83;;;;;;;;;;6274902;22;20199;-88
2024/04/05 00:34:49;;;;;;;7.40;3.07;;;;;;;;;;6274683;22;20204;-87
2024/04/05 00:37:15;;;;;;;4.30;1.53;;;;;;;;;;6274667;22;20171;-89
2024/04/05 00:39:41;;;;;;;8.67;2.30;;;;;;;;;;6274532;22;20203;-88
2024/04/05 00:42:07;;;;;;;4.97;1.53;;;;;;;;;;6275009;22;20309;-89
2024/04/05 00:44:36;;;;;;;3.30;1.27;;;;;;;;;;6275824;22;20195;-88
2024/04/05 00:47:02;;;;;;;1.63;1.17;;;;;;;;;;6276597;22;20172;-88
2024/04/05 00:49:29;;;;;;;10.43;1.47;;;;;;;;;;6243168;22;20248;-89
2024/04/05 00:51:57;;;;;;;11.90;2.27;;;;;;;;;;6243418;22;20820;-87
2024/04/05 00:54:24;;;;;;;17.97;2.57;;;;;;;;;;6242525;22;20550;-88
2024/04/05 00:56:50;;;;;;;19.63;2.83;;;;;;;;;;6243816;22;20211;-88
2024/04/05 00:59:19;;;;;;;5.40;1.27;;;;;;;;;;6193007;22;20230;-89
2024/04/05 01:01:46;;;;;;;14.87;2.57;;;;;;;;;;6243622;22;20173;-89
2024/04/05 01:04:12;;;;;;;4.80;2.13;;;;;;;;;;6243585;22;20283;-88
2024/04/05 01:06:38;;;;;;;6.37;2.30;;;;;;;;;;6192896;22;20215;-89
2024/04/05 01:09:04;;;;;;;7.77;2.07;;;;;;;;;;6242926;22;20204;-89
2024/04/05 01:11:31;;;;;;;6.50;1.17;;;;;;;;;;6211846;23;20205;-89
2024/04/05 01:13:57;;;;;;;3.07;2.60;;;;;;;;;;6163528;23;20203;-89
2024/04/05 01:16:23;;;;;;;3.33;2.03;;;;;;;;;;6163855;23;20703;-89
2024/04/05 01:18:50;;;;;;;3.77;2.30;;;;;;;;;;6162722;23;20204;-89
2024/04/05 01:21:17;;;;;;;29.87;2.67;;;;;;;;;;6187197;22;20257;-89
2024/04/05 01:23:43;;;;;;;2.03;1.10;;;;;;;;;;6217228;22;20271;-88
2024/04/05 01:26:10;;;;;;;1.57;0.93;;;;;;;;;;6216705;22;20208;-89
2024/04/05 01:28:36;;;;;;;10.83;2.30;;;;;;;;;;6218141;22;20699;-88
2024/04/05 01:31:02;;;;;;;1.60;1.50;;;;;;;;;;6217574;22;20204;-87
2024/04/05 01:33:28;;;;;;;10.90;3.30;;;;;;;;;;6192407;22;20466;-89
2024/04/05 01:35:57;;;;;;;4.30;1.43;;;;;;;;;;6186737;23;20593;-89
2024/04/05 01:38:23;;;;;;;13.63;1.53;;;;;;;;;;6237612;23;20204;-88
2024/04/05 01:40:49;;;;;;;1.87;1.40;;;;;;;;;;6224095;23;20181;-89
2024/04/05 01:43:15;;;;;;;2.67;2.07;;;;;;;;;;6162761;23;20211;-88
2024/04/05 01:45:41;;;;;;;1.77;1.17;;;;;;;;;;6212562;23;20205;-88
2024/04/05 01:48:08;;;;;;;7.00;2.20;;;;;;;;;;6242778;22;20246;-88
2024/04/05 01:50:34;;;;;;;23.77;2.57;;;;;;;;;;6242745;22;20242;-88
2024/04/05 01:53:00;;;;;;;2.87;2.43;;;;;;;;;;6231207;22;20548;-88
2024/04/05 01:55:26;;;;;;;4.70;2.17;;;;;;;;;;6243146;22;20750;-88
2024/04/05 01:57:52;;;;;;;2.20;1.20;;;;;;;;;;6242355;22;20196;-88
2024/04/05 02:00:18;;;;;;;2.00;1.33;;;;;;;;;;6242334;22;20245;-89
2024/04/05 02:02:45;;;;;;;1.90;0.70;;;;;;;;;;6244820;22;20218;-88
2024/04/05 02:05:13;;;;;;;5.90;2.23;;;;;;;;;;6244147;22;20528;-89
2024/04/05 02:07:39;;;;;;;4.03;1.93;;;;;;;;;;6271334;22;20172;-88
2024/04/05 02:10:06;;;;;;;26.20;0.93;;;;;;;;;;6277297;22;20199;-88
2024/04/05 02:12:35;;;;;;;7.50;1.63;;;;;;;;;;6276578;22;20203;-89
2024/04/05 02:15:01;;;;;;;0.80;0.80;;;;;;;;;;6275816;22;20290;-89
2024/04/05 02:17:27;;;;;;;3.50;1.30;;;;;;;;;;6276178;22;20271;-88
2024/04/05 02:19:54;;;;;;;2.30;1.17;;;;;;;;;;6276200;22;20176;-89
2024/04/05 02:22:20;;;;;;;8.93;2.40;;;;;;;;;;6276389;22;20175;-88
2024/04/05 02:24:46;;;;;;;5.23;1.77;;;;;;;;;;6276430;22;20341;-88
2024/04/05 02:27:13;;;;;;;1.03;1.03;;;;;;;;;;6276007;22;20216;-89
2024/04/05 02:29:39;;;;;;;8.47;2.80;;;;;;;;;;6275869;22;20219;-88
2024/04/05 02:32:05;;;;;;;9.33;1.70;;;;;;;;;;6276205;22;20168;-88
2024/04/05 02:34:31;;;;;;;9.40;1.77;;;;;;;;;;6269476;22;20200;-89
2024/04/05 02:36:57;;;;;;;2.93;2.60;;;;;;;;;;6243806;22;20522;-88
2024/04/05 02:39:23;;;;;;;6.67;2.33;;;;;;;;;;6218535;22;20196;-88
2024/04/05 02:41:50;;;;;;;11.13;1.90;;;;;;;;;;6243863;22;20227;-88
2024/04/05 02:44:16;;;;;;;2.83;1.93;;;;;;;;;;6218070;22;20200;-88
2024/04/05 02:46:42;;;;;;;7.67;2.07;;;;;;;;;;6244104;22;20258;-89
2024/04/05 02:49:09;;;;;;;1.90;1.50;;;;;;;;;;6243613;22;20210;-89
2024/04/05 02:51:35;;;;;;;3.10;1.53;;;;;;;;;;6242780;22;20659;-89
2024/04/05 02:54:02;;;;;;;8.27;2.13;;;;;;;;;;6218485;22;20646;-88
2024/04/05 02:56:28;;;;;;;7.03;2.20;;;;;;;;;;6243823;22;20196;-88
2024/04/05 02:58:56;;;;;;;2.67;0.80;;;;;;;;;;6218169;22;20172;-89
2024/04/05 03:01:23;;;;;;;3.20;0.87;;;;;;;;;;6219938;22;20568;-89
2024/04/05 03:03:50;;;;;;;9.00;1.43;;;;;;;;;;6243909;22;20196;-88
2024/04/05 03:06:16;;;;;;;5.10;0.87;;;;;;;;;;6264634;22;20229;-88
2024/04/05 03:08:42;;;;;;;6.97;1.63;;;;;;;;;;6275702;22;20210;-89
2024/04/05 03:11:11;;;;;;;8.03;1.73;;;;;;;;;;6213390;23;20638;-88
2024/04/05 03:13:38;;;;;;;13.60;1.33;;;;;;;;;;6208481;23;20189;-88
2024/04/05 03:16:04;;;;;;;1.40;0.47;;;;;;;;;;6183093;23;20227;-88
2024/04/05 03:18:31;;;;;;;8.73;1.03;;;;;;;;;;6159390;23;20205;-88
2024/04/05 03:20:58;;;;;;;2.03;1.47;;;;;;;;;;6159727;23;20253;-89
2024/04/05 03:23:24;;;;;;;5.90;1.03;;;;;;;;;;6184333;23;20231;-90
2024/04/05 03:25:50;;;;;;;4.23;1.47;;;;;;;;;;6159551;23;20236;-87
2024/04/05 03:28:16;;;;;;;4.57;1.67;;;;;;;;;;6159945;23;20740;-88
2024/04/05 03:30:43;;;;;;;6.43;1.03;;;;;;;;;;6160211;23;20240;-89
2024/04/05 03:33:09;;;;;;;4.10;1.17;;;;;;;;;;6158667;23;20723;-88
2024/04/05 03:35:38;;;;;;;3.53;3.13;;;;;;;;;;6183759;23;20276;-88
2024/04/05 03:38:04;;;;;;;2.20;1.27;;;;;;;;;;6183697;23;20178;-88
2024/04/05 03:40:31;;;;;;;2.00;1.90;;;;;;;;;;6159395;23;20178;-88
2024/04/05 03:42:57;;;;;;;4.87;0.73;;;;;;;;;;6159111;23;20288;-88
2024/04/05 03:45:23;;;;;;;7.90;2.13;;;;;;;;;;6184342;23;20306;-88
2024/04/05 03:47:49;;;;;;;2.87;1.27;;;;;;;;;;6201505;22;20200;-88
2024/04/05 03:50:15;;;;;;;2.33;1.83;;;;;;;;;;6276675;22;20204;-88
2024/04/05 03:52:41;;;;;;;3.60;1.13;;;;;;;;;;6276665;22;20175;-87
2024/04/05 03:55:07;;;;;;;1.80;1.70;;;;;;;;;;6276509;22;20207;-87
2024/04/05 03:57:34;;;;;;;7.50;2.03;;;;;;;;;;6276921;22;20864;-89
2024/04/05 04:00:00;;;;;;;1.37;1.13;;;;;;;;;;6276073;22;20207;-88
2024/04/05 04:02:26;;;;;;;2.17;1.53;;;;;;;;;;6275809;22;20200;-88
2024/04/05 04:04:52;;;;;;;4.07;2.13;;;;;;;;;;6277996;22;20214;-88
2024/04/05 04:07:18;;;;;;;5.53;1.47;;;;;;;;;;6278341;22;20613;-88
2024/04/05 04:09:46;;;;;;;0.80;0.80;;;;;;;;;;6276502;22;20300;-88
2024/04/05 04:12:15;;;;;;;3.90;2.13;;;;;;;;;;6276975;22;20196;-88
2024/04/05 04:14:41;;;;;;;3.60;2.40;;;;;;;;;;6276324;22;20204;-88
2024/04/05 04:17:10;;;;;;;8.27;1.37;;;;;;;;;;6302590;22;20629;-89
2024/04/05 04:19:37;;;;;;;3.83;1.93;;;;;;;;;;6277055;22;20183;-88
2024/04/05 04:22:03;;;;;;;19.47;2.30;;;;;;;;;;6275580;22;20283;-89
2024/04/05 04:24:29;;;;;;;1.30;1.13;;;;;;;;;;6225327;22;20275;-88
2024/04/05 04:26:56;;;;;;;12.07;1.47;;;;;;;;;;6225228;22;20227;-89
2024/04/05 04:29:22;;;;;;;1.43;1.33;;;;;;;;;;6276837;22;20192;-89
2024/04/05 04:31:48;;;;;;;1.10;1.10;;;;;;;;;;6224955;22;20160;-89
2024/04/05 04:34:14;;;;;;;10.53;1.43;;;;;;;;;;6225453;22;20207;-89
2024/04/05 04:36:40;;;;;;;3.83;1.47;;;;;;;;;;6224540;22;20200;-89
2024/04/05 04:39:08;;;;;;;5.03;1.40;;;;;;;;;;6243019;22;20238;-89
2024/04/05 04:41:34;;;;;;;0.93;0.93;;;;;;;;;;6243188;22;20272;-88
2024/04/05 04:44:01;;;;;;;3.90;1.60;;;;;;;;;;6194437;22;20183;-88
2024/04/05 04:46:27;;;;;;;2.47;1.50;;;;;;;;;;6194792;22;20172;-89
2024/04/05 04:48:53;;;;;;;1.50;1.33;;;;;;;;;;6219985;22;20204;-88
2024/04/05 04:51:19;;;;;;;3.17;1.80;;;;;;;;;;6193467;22;20200;-88
2024/04/05 04:53:45;;;;;;;7.07;2.40;;;;;;;;;;6170792;23;20219;-89
2024/04/05 04:56:12;;;;;;;2.77;2.60;;;;;;;;;;6189762;23;20225;-88
2024/04/05 04:58:38;;;;;;;1.30;1.20;;;;;;;;;;6189691;23;20642;-89
2024/04/05 05:01:05;;;;;;;2.10;1.93;;;;;;;;;;6188453;23;20204;-89
2024/04/05 05:03:31;;;;;;;5.20;2.70;;;;;;;;;;6188681;23;20260;-90
2024/04/05 05:05:57;;;;;;;9.07;1.70;;;;;;;;;;6213341;23;20654;-90
2024/04/05 05:08:25;;;;;;;3.73;2.30;;;;;;;;;;6189618;23;20193;-89
2024/04/05 05:10:52;;;;;;;0.70;0.57;;;;;;;;;;6260159;22;20167;-88
2024/04/05 05:13:18;;;;;;;3.17;1.30;;;;;;;;;;6277215;22;20535;-89
2024/04/05 05:15:44;;;;;;;7.93;1.60;;;;;;;;;;6276335;22;20215;-89
2024/04/05 05:18:11;;;;;;;12.47;2.60;;;;;;;;;;6275987;22;20207;-89
2024/04/05 05:20:37;;;;;;;2.93;1.40;;;;;;;;;;6276405;22;20626;-89
2024/04/05 05:23:05;;;;;;;1.43;1.00;;;;;;;;;;6276373;22;20172;-88
2024/04/05 05:25:31;;;;;;;7.23;2.33;;;;;;;;;;6274292;22;20601;-89
2024/04/05 05:27:57;;;;;;;14.33;2.50;;;;;;;;;;6195413;22;20204;-89
2024/04/05 05:30:23;;;;;;;5.23;1.50;;;;;;;;;;6195630;22;20197;-87
2024/04/05 05:32:49;;;;;;;1.83;1.47;;;;;;;;;;6195079;22;20243;-88
2024/04/05 05:35:15;;;;;;;5.20;1.83;;;;;;;;;;6194762;22;20209;-88
2024/04/05 05:37:41;;;;;;;7.47;2.83;;;;;;;;;;6222802;22;20184;-89
2024/04/05 05:40:08;;;;;;;2.30;1.90;;;;;;;;;;6195849;22;20228;-88
2024/04/05 05:42:34;;;;;;;0.97;0.73;;;;;;;;;;6221872;22;20201;-87
2024/04/05 05:45:00;;;;;;;16.00;1.17;;;;;;;;;;6196976;22;20362;-87
2024/04/05 05:47:26;;;;;;;6.87;1.23;;;;;;;;;;6197952;22;20197;-88
2024/04/05 05:49:52;;;;;;;4.97;1.60;;;;;;;;;;6221881;22;20226;-90
2024/04/05 05:52:19;;;;;;;1.67;1.37;;;;;;;;;;6198101;22;20618;-90
2024/04/05 05:54:45;;;;;;;5.63;2.57;;;;;;;;;;6222275;22;20215;-90
2024/04/05 05:57:11;;;;;;;2.73;1.70;;;;;;;;;;6197133;22;20228;-90
2024/04/05 05:59:37;;;;;;;4.70;1.67;;;;;;;;;;6220689;22;20207;-89
2024/04/05 06:02:06;;;;;;;7.67;2.67;;;;;;;;;;6221870;22;20807;-88
2024/04/05 06:04:32;;;;;;;9.73;0.93;;;;;;;;;;6222219;22;20683;-88
2024/04/05 06:06:59;;;;;;;23.93;2.50;;;;;;;;;;6222198;22;20333;-89
2024/04/05 06:09:25;;;;;;;8.30;1.63;;;;;;;;;;6222647;22;20204;-88
2024/04/05 06:11:52;;;;;;;1.23;1.03;;;;;;;;;;6196463;22;20299;-88
2024/04/05 06:14:18;;;;;;;1.40;1.30;;;;;;;;;;6220877;22;20274;-88
2024/04/05 06:16:45;;;;;;;1.47;1.37;;;;;;;;;;6196844;22;20172;-89
2024/04/05 06:19:11;;;;;;;3.63;2.23;;;;;;;;;;6221677;22;20204;-87
2024/04/05 06:21:37;;;;;;;2.33;1.30;;;;;;;;;;6196832;22;20212;-88
2024/04/05 06:24:04;;;;;;;3.80;1.47;;;;;;;;;;6196923;22;20197;-88
2024/04/05 06:26:32;;;;;;;2.50;1.57;;;;;;;;;;6269528;22;20300;-89
2024/04/05 06:28:58;;;;;;;5.87;0.87;;;;;;;;;;6264495;22;20237;-88
2024/04/05 06:31:24;;;;;;;3.13;1.43;;;;;;;;;;6277624;22;20164;-89
2024/04/05 06:33:50;;;;;;;3.13;1.73;;;;;;;;;;6277755;22;20253;-88
2024/04/05 06:36:16;;;;;;;2.90;1.37;;;;;;;;;;6276867;22;20196;-88
2024/04/05 06:38:42;;;;;;;2.37;2.17;;;;;;;;;;6277371;22;20199;-88
2024/04/05 06:41:09;;;;;;;5.20;2.57;;;;;;;;;;6278074;22;20258;-88
2024/04/05 06:43:35;;;;;;;8.10;2.27;;;;;;;;;;6277990;22;20217;-88
2024/04/05 06:46:07;;;;;;;8.07;1.37;;;;;;;;;;6277613;22;20657;-88
2024/04/05 06:48:33;;;;;;;1.03;1.03;;;;;;;;;;6278648;22;20196;-89
2024/04/05 06:51:00;;;;;;;3.03;1.73;;;;;;;;;;6276780;22;20207;-88
2024/04/05 06:53:29;;;;;;;5.33;1.50;;;;;;;;;;6277142;22;20191;-89
2024/04/05 06:55:56;;;;;;;2.27;1.80;;;;;;;;;;6277489;22;20284;-88
2024/04/05 06:58:22;;;;;;;1.83;1.43;;;;;;;;;;6277998;22;20172;-89
2024/04/05 07:00:49;;;;;;;6.63;1.13;;;;;;;;;;6277527;22;20196;-89
2024/04/05 07:03:18;;;;;;;5.13;1.60;;;;;;;;;;6277370;22;20207;-89
2024/04/05 07:05:47;;;;;;;7.37;1.80;;;;;;;;;;6277827;22;20231;-91
2024/04/05 07:08:13;;;;;;;2.03;1.90;;;;;;;;;;6276077;22;20193;-90
2024/04/05 07:10:40;;;;;;;1.97;1.40;;;;;;;;;;6225916;22;20175;-90
2024/04/05 07:13:06;;;;;;;1.17;0.83;;;;;;;;;;6275487;22;20204;-90
2024/04/05 07:15:32;;;;;;;8.93;1.07;;;;;;;;;;6224805;22;20220;-90
2024/04/05 07:17:58;;;;;;;8.73;2.00;;;;;;;;;;6225074;22;20257;-90
2024/04/05 07:20:25;;;;;;;6.73;1.13;;;;;;;;;;6224911;22;20536;-90
2024/04/05 07:22:52;;;;;;;2.27;2.07;;;;;;;;;;6224850;22;20532;-90
2024/04/05 07:25:21;;;;;;;1.87;1.77;;;;;;;;;;6275955;22;20165;-91
2024/04/05 07:27:51;;;;;;;4.43;2.00;;;;;;;;;;6249520;22;20652;-90
2024/04/05 07:30:22;;;;;;;3.20;3.00;;;;;;;;;;6275684;22;20219;-90
2024/04/05 07:32:51;;;;;;;10.07;3.10;;;;;;;;;;6249700;22;20207;-90
2024/04/05 07:35:18;;;;;;;4.27;1.27;;;;;;;;;;6275425;22;20219;-90
2024/04/05 07:37:55;;;;;;;2.33;1.37;;;;;;;;;;6275730;22;20501;-90
2024/04/05 07:40:21;;;;;;;1.63;1.53;;;;;;;;;;6275535;22;20230;-90
2024/04/05 07:42:51;;;;;;;2.20;1.53;;;;;;;;;;6276776;22;20210;-90
2024/04/05 07:45:18;;;;;;;2.80;2.57;;;;;;;;;;6277028;22;20257;-89
2024/04/05 07:47:47;;;;;;;3.10;1.60;;;;;;;;;;6276253;22;20211;-89
2024/04/05 07:50:13;;;;;;;0.97;0.97;;;;;;;;;;6277610;22;20204;-89
2024/04/05 07:52:39;;;;;;;1.17;0.90;;;;;;;;;;6277362;22;20176;-89
2024/04/05 07:55:06;;;;;;;4.23;1.37;;;;;;;;;;6276560;22;20208;-90
2024/04/05 07:57:32;;;;;;;5.60;1.17;;;;;;;;;;6277048;22;20199;-89
2024/04/05 08:00:01;;;;;;;2.70;1.67;;;;;;;;;;6276864;22;20200;-89
2024/04/05 08:02:29;;;;;;;4.57;1.30;;;;;;;;;;6302726;22;20716;-89
2024/04/05 08:04:58;;;;;;;3.80;2.07;;;;;;;;;;6276452;22;20176;-89
2024/04/05 08:07:25;;;;;;;4.07;2.70;;;;;;;;;;6277551;22;20194;-89
2024/04/05 08:09:52;;;;;;;0.60;0.60;;;;;;;;;;6276926;22;20203;-90
2024/04/05 08:12:21;;;;;;;1.37;1.07;;;;;;;;;;6276460;22;20269;-90
2024/04/05 08:14:50;;;;;;;2.20;1.83;;;;;;;;;;6276014;22;20208;-90
2024/04/05 08:17:16;;;;;;;1.47;1.20;;;;;;;;;;6276748;22;20616;-88
2024/04/05 08:19:43;;;;;;;2.30;1.43;;;;;;;;;;6274922;22;20609;-88
2024/04/05 08:22:09;;;;;;;3.17;1.23;;;;;;;;;;6274359;22;20753;-89
2024/04/05 08:24:36;;;;;;;0.43;0.43;;;;;;;;;;6188579;23;20255;-89
2024/04/05 08:27:02;;;;;;;2.40;1.20;;;;;;;;;;6238464;22;20264;-89
2024/04/05 08:29:29;;;;;;;1.37;0.80;;;;;;;;;;6214162;23;20207;-89
2024/04/05 08:31:55;;;;;;;0.23;0.23;;;;;;;;;;6238375;22;20192;-90
2024/04/05 08:34:21;;;;;;;0.57;0.57;;;;;;;;;;6214834;23;20216;-89
2024/04/05 08:36:48;;;;;;;2.33;0.87;;;;;;;;;;6238392;22;20212;-90
2024/04/05 08:39:18;;;;;;;1.43;0.73;;;;;;;;;;6239400;22;20205;-92
2024/04/05 08:41:46;;;;;;;0.90;0.83;;;;;;;;;;6214336;23;20275;-90
2024/04/05 08:44:16;;;;;;;1.27;1.13;;;;;;;;;;6215030;22;20262;-92
2024/04/05 08:46:44;;;;;;;0.90;0.90;;;;;;;;;;6240663;23;20264;-93
2024/04/05 08:49:11;;;;;;;1.90;1.80;;;;;;;;;;6215125;23;20326;-92
2024/04/05 08:51:40;;;;;;;1.27;0.73;;;;;;;;;;6267461;22;20263;-91
2024/04/05 08:54:09;;;;;;;2.63;1.63;;;;;;;;;;6219750;22;20208;-92
2024/04/05 08:56:35;;;;;;;0.57;0.57;;;;;;;;;;6271631;22;20195;-91
2024/04/05 08:59:02;;;;;;;1.50;1.37;;;;;;;;;;6276928;22;20314;-91
2024/04/05 09:01:29;;;;;;;3.13;1.93;;;;;;;;;;6278096;22;20165;-92
2024/04/05 09:03:55;;;;;;;3.43;1.53;;;;;;;;;;6291674;22;20242;-92
2024/04/05 09:06:22;;;;;;;2.37;1.00;;;;;;;;;;6266550;22;20206;-91
2024/04/05 09:08:49;;;;;;;7.00;1.70;;;;;;;;;;6302430;22;20210;-91
2024/04/05 09:11:25;;;;;;;1.33;1.23;;;;;;;;;;6277220;22;20282;-91
2024/04/05 09:14:01;;;;;;;1.90;1.47;;;;;;;;;;6278081;22;20206;-91
2024/04/05 09:16:29;;;;;;;1.37;1.07;;;;;;;;;;6277211;22;20172;-92
2024/04/05 09:19:08;;;;;;;1.17;0.63;;;;;;;;;;6277566;22;20233;-93
2024/04/05 09:21:35;;;;;;;4.53;1.23;;;;;;;;;;6277123;22;20203;-92
2024/04/05 09:24:07;;;;;;;3.70;1.60;;;;;;;;;;6276447;22;21157;-92
2024/04/05 09:26:34;;;;;;;7.63;1.13;;;;;;;;;;6277559;22;20200;-93
2024/04/05 09:29:03;;;;;;;1.30;1.00;;;;;;;;;;6276339;22;20219;-93
2024/04/05 09:31:31;;;;;;;7.83;2.33;;;;;;;;;;6277992;22;20202;-92
2024/04/05 09:34:06;;;;;;;0.80;0.80;;;;;;;;;;6277015;22;20251;-92
2024/04/05 09:36:36;;;;;;;0.90;0.73;;;;;;;;;;6275828;22;20207;-92
2024/04/05 09:39:04;;;;;;;9.57;0.77;;;;;;;;;;6276729;22;20200;-92
2024/04/05 09:41:35;;;;;;;1.33;0.77;;;;;;;;;;6276423;22;20256;-91
2024/04/05 09:44:05;;;;;;;3.90;1.70;;;;;;;;;;6276667;22;20175;-92
2024/04/05 09:46:31;;;;;;;0.73;0.67;;;;;;;;;;6277561;22;20166;-92
2024/04/05 09:48:58;;;;;;;3.07;1.37;;;;;;;;;;6275788;22;20203;-91
2024/04/05 09:51:54;;;;;;;3.67;0.73;;;;;;;;;;6276744;22;20204;-92
2024/04/05 09:54:32;;;;;;;1.70;1.20;;;;;;;;;;6304077;22;20303;-94
2024/04/05 09:56:58;;;;;;;2.47;1.90;;;;;;;;;;6279083;22;20223;-90
2024/04/05 09:59:34;;;;;;;6.60;0.67;;;;;;;;;;6276487;22;20199;-90
2024/04/05 10:02:00;;;;;;;4.77;1.17;;;;;;;;;;6276007;22;20206;-91
2024/04/05 10:04:26;;;;;;;4.33;0.83;;;;;;;;;;6277076;22;20547;-90
2024/04/05 10:06:53;;;;;;;1.40;1.30;;;;;;;;;;6275689;22;20543;-90
2024/04/05 10:09:20;;;;;;;0.73;0.60;;;;;;;;;;6275774;22;20208;-90
2024/04/05 10:11:50;;;;;;;4.57;1.10;;;;;;;;;;6262480;22;20804;-90
2024/04/05 10:14:23;;;;;;;0.73;0.70;;;;;;;;;;6276756;22;20207;-91
2024/04/05 10:16:50;;;;;;;1.00;0.70;;;;;;;;;;6301419;22;20172;-90
2024/04/05 10:19:16;;;;;;;3.87;3.63;;;;;;;;;;6303600;22;20176;-91
2024/04/05 10:21:47;;;;;;;0.20;0.20;;;;;;;;;;6276661;22;20227;-90
2024/04/05 10:24:13;;;;;;;2.70;0.77;;;;;;;;;;6278441;22;20215;-91
2024/04/05 10:26:50;;;;;;;2.67;1.10;;;;;;;;;;6278738;22;21189;-96
2024/04/05 10:29:17;;;;;;;4.83;1.93;;;;;;;;;;6281304;22;20207;-91
2024/04/05 10:31:43;;;;;;;5.23;0.90;;;;;;;;;;6281699;22;20508;-91
2024/04/05 10:34:09;;;;;;;1.50;1.20;;;;;;;;;;6262489;22;20208;-91
2024/04/05 10:36:38;;;;;;;3.83;0.93;;;;;;;;;;6277662;22;20307;-92
2024/04/05 10:39:17;;;;;;;1.87;1.73;;;;;;;;;;6277490;22;20265;-92
2024/04/05 10:41:46;;;;;;;1.03;0.73;;;;;;;;;;6277669;22;20630;-90
2024/04/05 10:44:13;;;;;;;0.33;0.33;;;;;;;;;;6277457;22;20206;-91
2024/04/05 10:46:39;;;;;;;4.17;0.70;;;;;;;;;;6278618;22;20176;-93
2024/04/05 10:49:06;;;;;;;3.50;1.13;;;;;;;;;;6277300;22;20206;-92
2024/04/05 10:51:32;;;;;;;0.83;0.83;;;;;;;;;;6278629;22;20561;-92
2024/04/05 10:54:08;;;;;;;1.63;1.53;;;;;;;;;;6278894;22;20260;-92
2024/04/05 10:56:44;;;;;;;3.57;1.03;;;;;;;;;;6276712;22;20253;-92
2024/04/05 10:59:13;;;;;;;1.23;1.13;;;;;;;;;;6278675;22;20222;-92
2024/04/05 11:01:40;;;;;;;0.80;0.77;;;;;;;;;;6280896;22;20190;-93
2024/04/05 11:04:10;;;;;;;1.40;1.30;;;;;;;;;;6281741;22;20213;-93
2024/04/05 11:06:36;;;;;;;2.00;1.23;;;;;;;;;;6282460;22;20278;-92
2024/04/05 11:09:05;;;;;;;1.83;1.30;;;;;;;;;;6280069;22;20223;-91
2024/04/05 11:11:32;;;;;;;2.07;1.10;;;;;;;;;;6278450;22;20196;-92
2024/04/05 11:14:03;;;;;;;1.47;0.60;;;;;;;;;;6277661;22;20168;-92
2024/04/05 11:16:32;;;;;;;1.37;0.83;;;;;;;;;;6281395;22;20219;-95
2024/04/05 11:18:58;;;;;;;1.83;1.73;;;;;;;;;;6276256;22;20204;-91
2024/04/05 11:21:24;;;;;;;2.20;0.80;;;;;;;;;;6271161;22;20269;-92
2024/04/05 11:23:53;;;;;;;1.27;0.87;;;;;;;;;;6246408;22;20679;-92
2024/04/05 11:26:20;;;;;;;0.67;0.67;;;;;;;;;;6246366;22;20249;-90
2024/04/05 11:28:47;;;;;;;1.33;0.80;;;;;;;;;;6247628;22;20212;-91
2024/04/05 11:31:19;;;;;;;2.37;1.13;;;;;;;;;;6220501;22;20526;-92
2024/04/05 11:33:45;;;;;;;1.03;0.77;;;;;;;;;;6245440;22;20211;-93
2024/04/05 11:36:12;;;;;;;0.90;0.80;;;;;;;;;;6244282;22;20726;-93
2024/04/05 11:38:38;;;;;;;0.70;0.70;;;;;;;;;;6244829;22;20778;-93
2024/04/05 11:41:04;;;;;;;2.43;0.97;;;;;;;;;;6247050;22;20247;-93
2024/04/05 11:43:30;;;;;;;0.77;0.63;;;;;;;;;;6246851;22;20172;-92
2024/04/05 11:45:56;;;;;;;2.47;2.13;;;;;;;;;;6246975;22;20242;-92
2024/04/05 11:48:23;;;;;;;0.73;0.73;;;;;;;;;;6245337;22;20207;-92
2024/04/05 11:50:50;;;;;;;1.63;1.20;;;;;;;;;;6246649;22;20665;-92
2024/04/05 11:53:16;;;;;;;0.97;0.67;;;;;;;;;;6295304;22;20199;-92
2024/04/05 11:55:43;;;;;;;0.50;0.40;;;;;;;;;;6277289;22;20207;-92
2024/04/05 11:58:10;;;;;;;3.20;1.10;;;;;;;;;;6277459;22;20286;-93
2024/04/05 12:00:36;;;;;;;2.23;1.60;;;;;;;;;;6279014;22;20199;-93
2024/04/05 12:03:02;;;;;;;2.13;1.33;;;;;;;;;;6280917;22;20207;-94
2024/04/05 12:05:28;;;;;;;12.33;1.13;;;;;;;;;;6279557;22;20195;-91
2024/04/05 12:07:55;;;;;;;0.80;0.77;;;;;;;;;;6280695;22;20168;-94
2024/04/05 12:10:21;;;;;;;2.23;0.97;;;;;;;;;;6283390;22;20183;-91
2024/04/05 12:12:49;;;;;;;0.77;0.77;;;;;;;;;;6279917;22;20239;-92
2024/04/05 12:15:19;;;;;;;0.87;0.87;;;;;;;;;;6281115;22;20231;-92
2024/04/05 12:17:47;;;;;;;0.87;0.83;;;;;;;;;;6287653;22;20204;-94
2024/04/05 12:20:14;;;;;;;1.63;1.20;;;;;;;;;;6281429;22;20195;-95
2024/04/05 12:22:40;;;;;;;2.47;0.93;;;;;;;;;;6280426;22;20172;-94
2024/04/05 12:25:07;;;;;;;1.43;1.13;;;;;;;;;;6279557;22;20235;-94
2024/04/05 12:27:36;;;;;;;1.47;1.37;;;;;;;;;;6272791;22;20220;-93
2024/04/05 12:30:03;;;;;;;1.13;1.03;;;;;;;;;;6223670;22;20208;-94
2024/04/05 12:32:30;;;;;;;10.03;2.90;;;;;;;;;;6249377;22;20228;-93
2024/04/05 12:34:57;;;;;;;1.10;0.90;;;;;;;;;;6187820;23;20689;-94
2024/04/05 12:37:25;;;;;;;1.73;1.07;;;;;;;;;;6214887;23;20175;-94
2024/04/05 12:39:57;;;;;;;0.80;0.80;;;;;;;;;;6189703;23;20233;-94
2024/04/05 12:42:23;;;;;;;1.30;0.80;;;;;;;;;;6188414;23;20209;-92
2024/04/05 12:44:50;;;;;;;1.20;1.10;;;;;;;;;;6199191;23;20890;-93
2024/04/05 12:47:16;;;;;;;1.70;0.80;;;;;;;;;;6185429;23;20205;-94
2024/04/05 12:49:43;;;;;;;0.50;0.50;;;;;;;;;;6213408;23;20213;-90
2024/04/05 12:52:09;;;;;;;1.43;0.80;;;;;;;;;;6210790;23;20721;-93
2024/04/05 12:54:36;;;;;;;12.97;1.17;;;;;;;;;;6213877;23;20220;-92
2024/04/05 12:57:06;;;;;;;0.70;0.70;;;;;;;;;;6216817;23;20198;-94
2024/04/05 12:59:33;;;;;;;2.20;1.07;;;;;;;;;;6213131;23;20289;-93
2024/04/05 13:02:00;;;;;;;1.07;1.03;;;;;;;;;;6190807;23;20178;-95
2024/04/05 13:04:26;;;;;;;3.70;1.20;;;;;;;;;;6192316;23;20279;-95
2024/04/05 13:07:00;;;;;;;2.73;0.80;;;;;;;;;;6192610;23;20202;-94
2024/04/05 13:09:26;;;;;;;2.30;1.03;;;;;;;;;;6185835;23;20206;-94
2024/04/05 13:12:04;;;;;;;0.60;0.57;;;;;;;;;;6200097;22;20231;-93
2024/04/05 13:14:30;;;;;;;2.33;0.70;;;;;;;;;;6245683;22;20557;-93
2024/04/05 13:16:57;;;;;;;6.17;1.30;;;;;;;;;;6228798;22;20168;-93
2024/04/05 13:19:23;;;;;;;1.30;1.10;;;;;;;;;;6280103;22;20172;-93
2024/04/05 13:21:52;;;;;;;4.83;2.33;;;;;;;;;;6278789;22;20234;-92
2024/04/05 13:24:18;;;;;;;2.93;1.33;;;;;;;;;;6278782;22;20245;-94
2024/04/05 13:26:45;;;;;;;3.43;1.30;;;;;;;;;;6279886;22;20222;-92
2024/04/05 13:29:13;;;;;;;0.60;0.60;;;;;;;;;;6278802;22;20196;-92
2024/04/05 13:31:43;;;;;;;1.03;0.40;;;;;;;;;;6277730;22;20176;-92
2024/04/05 13:34:09;;;;;;;1.23;0.80;;;;;;;;;;6277662;22;20200;-93
2024/04/05 13:36:37;;;;;;;3.00;1.07;;;;;;;;;;6276183;22;20211;-94
2024/04/05 13:39:09;;;;;;;6.90;1.57;;;;;;;;;;6276844;22;20675;-92
2024/04/05 13:41:36;;;;;;;2.53;1.10;;;;;;;;;;6278080;22;20204;-94
2024/04/05 13:44:05;;;;;;;1.60;0.53;;;;;;;;;;6275648;22;20168;-93
2024/04/05 13:46:34;;;;;;;3.60;0.87;;;;;;;;;;6277356;22;20171;-92
2024/04/05 13:49:00;;;;;;;3.90;0.93;;;;;;;;;;6277349;22;20207;-92
2024/04/05 13:51:29;;;;;;;1.93;0.77;;;;;;;;;;6275779;22;20274;-94
2024/04/05 13:53:56;;;;;;;1.87;0.80;;;;;;;;;;6276552;22;20200;-92
2024/04/05 13:56:22;;;;;;;3.53;1.23;;;;;;;;;;6275780;22;20212;-94
2024/04/05 13:58:49;;;;;;;2.47;0.77;;;;;;;;;;6278313;22;20164;-92
2024/04/05 14:01:15;;;;;;;6.03;1.30;;;;;;;;;;6303814;22;20198;-93
2024/04/05 14:03:45;;;;;;;11.13;0.97;;;;;;;;;;6277502;22;20203;-92
2024/04/05 14:06:11;;;;;;;5.57;1.43;;;;;;;;;;6278849;22;20204;-93
2024/04/05 14:08:37;;;;;;;2.00;1.90;;;;;;;;;;6280429;22;20534;-93
2024/04/05 14:11:07;;;;;;;2.60;1.27;;;;;;;;;;6277939;22;20232;-94
2024/04/05 14:13:34;;;;;;;4.00;0.93;;;;;;;;;;6278926;22;20175;-93
2024/04/05 14:16:06;;;;;;;1.50;0.60;;;;;;;;;;6278491;22;20215;-92
2024/04/05 14:18:32;;;;;;;11.07;0.93;;;;;;;;;;6278704;22;21150;-94
2024/04/05 14:21:01;;;;;;;1.70;0.97;;;;;;;;;;6277601;22;20199;-93
2024/04/05 14:23:28;;;;;;;3.50;1.53;;;;;;;;;;6278632;22;20275;-94
2024/04/05 14:25:54;;;;;;;2.47;0.97;;;;;;;;;;6274150;22;20617;-94
2024/04/05 14:28:25;;;;;;;7.37;1.17;;;;;;;;;;6222135;22;20180;-94
2024/04/05 14:31:03;;;;;;;3.13;1.50;;;;;;;;;;6222265;22;20208;-92
2024/04/05 14:33:30;;;;;;;6.57;1.20;;;;;;;;;;6221825;22;20257;-93
2024/04/05 14:35:57;;;;;;;1.77;1.07;;;;;;;;;;6196569;22;20643;-94
2024/04/05 14:38:23;;;;;;;4.77;1.10;;;;;;;;;;6220486;22;20200;-92
2024/04/05 14:40:49;;;;;;;5.13;1.47;;;;;;;;;;6195885;22;20168;-92